Time;durP1;ratioP1;P1;durP2;ratioP2;P2;SDS_P1;SDS_P2;PMS_P1;PMS_P2;Temp;Humidity;BMP_temperature;BMP_pressure;BME280_temperature;BME280_humidity;BME280_pressure;Samples;Min_cycle;Max_cycle;Signal;HPM_P1;HPM_P2
2021/09/19 00:00:31;;;;;;;16.23;5.67;;;;;;;16.92;100.00;100234.67;1778966;80;21048;-89
2021/09/19 00:02:57;;;;;;;12.35;5.70;;;;;;;16.99;100.00;100228.22;1777102;80;21106;-88
2021/09/19 00:05:23;;;;;;;12.88;5.95;;;;;;;17.03;100.00;100234.09;1751907;81;21881;-89
2021/09/19 00:07:49;;;;;;;10.63;5.30;;;;;;;17.09;100.00;100231.22;1751906;82;20954;-89
2021/09/19 00:10:17;;;;;;;12.33;5.42;;;;;;;17.13;100.00;100224.85;1751785;81;21045;-89
2021/09/19 00:12:44;;;;;;;16.48;6.47;;;;;;;17.11;100.00;100225.71;1751556;81;21117;-88
2021/09/19 00:15:29;;;;;;;15.88;5.97;;;;;;;17.07;100.00;100224.74;1752009;82;21017;-88
2021/09/19 00:17:54;;;;;;;16.32;6.42;;;;;;;17.04;100.00;100228.09;1721976;83;21085;-89
2021/09/19 00:20:21;;;;;;;16.32;6.50;;;;;;;17.05;100.00;100227.52;1721823;83;20907;-89
2021/09/19 00:22:46;;;;;;;22.80;6.60;;;;;;;17.04;100.00;100225.37;1720969;82;21058;-87
2021/09/19 00:25:13;;;;;;;18.05;7.30;;;;;;;16.92;100.00;100201.44;1699210;83;21044;-89
2021/09/19 00:27:39;;;;;;;19.42;7.17;;;;;;;17.03;100.00;100217.77;1721889;83;21057;-89
2021/09/19 00:30:08;;;;;;;15.83;6.62;;;;;;;17.05;100.00;100221.52;1721932;83;21930;-87
2021/09/19 00:32:34;;;;;;;16.85;6.92;;;;;;;17.07;100.00;100235.63;1721886;83;21022;-88
2021/09/19 00:38:42;;;;;;;14.85;6.22;;;;;;;17.04;100.00;100248.51;1721727;83;21034;-89
2021/09/19 00:41:08;;;;;;;23.83;7.08;;;;;;;17.14;100.00;100239.27;1721987;83;21447;-89
2021/09/19 00:43:34;;;;;;;18.55;7.17;;;;;;;17.15;100.00;100237.60;1721930;83;21407;-89
2021/09/19 00:46:00;;;;;;;13.83;6.22;;;;;;;17.13;100.00;100229.50;1721997;83;20959;-92
2021/09/19 00:48:26;;;;;;;16.17;6.85;;;;;;;17.13;100.00;100234.38;1722025;83;20895;-90
2021/09/19 00:50:51;;;;;;;14.87;5.97;;;;;;;17.18;100.00;100237.55;1722098;83;20868;-89
2021/09/19 00:53:19;;;;;;;15.38;5.70;;;;;;;17.17;100.00;100246.24;1721996;83;20963;-88
2021/09/19 00:55:49;;;;;;;13.45;6.22;;;;;;;17.17;100.00;100245.45;1721831;83;21545;-88
2021/09/19 00:58:17;;;;;;;15.70;6.62;;;;;;;17.22;100.00;100239.31;1721701;83;20990;-88
2021/09/19 01:00:49;;;;;;;16.60;7.00;;;;;;;17.31;100.00;100237.19;1722213;83;21042;-89
2021/09/19 01:03:12;;;;;;;20.97;7.33;;;;;;;17.35;100.00;100240.32;1718062;83;21035;-89
2021/09/19 01:05:39;;;;;;;13.20;6.50;;;;;;;17.36;100.00;100233.77;1721999;83;21292;-89
2021/09/19 01:08:05;;;;;;;14.07;6.92;;;;;;;17.37;100.00;100231.84;1721817;83;21027;-89
2021/09/19 01:10:32;;;;;;;17.37;7.12;;;;;;;17.35;100.00;100234.88;1721822;83;21510;-88
2021/09/19 01:12:58;;;;;;;11.85;6.40;;;;;;;17.42;100.00;100242.61;1721751;83;21547;-88
2021/09/19 01:15:25;;;;;;;12.88;7.08;;;;;;;17.44;100.00;100240.36;1721977;83;21061;-93
2021/09/19 01:17:52;;;;;;;12.85;7.20;;;;;;;17.44;100.00;100240.36;1721965;83;21045;-88
2021/09/19 01:20:22;;;;;;;13.53;6.92;;;;;;;17.44;100.00;100240.36;1722138;83;21153;-88
2021/09/19 01:23:02;;;;;;;15.90;7.92;;;;;;;17.37;100.00;100241.38;1721917;83;21523;-87
2021/09/19 01:25:29;;;;;;;15.98;7.53;;;;;;;17.37;100.00;100240.02;1666096;86;21702;-86
2021/09/19 01:27:55;;;;;;;13.72;7.05;;;;;;;17.38;100.00;100234.27;1651604;86;21054;-87
2021/09/19 01:30:21;;;;;;;17.73;7.28;;;;;;;17.37;100.00;100229.12;1697773;84;21106;-86
2021/09/19 01:32:47;;;;;;;14.38;7.15;;;;;;;17.36;100.00;100226.97;1697776;84;21834;-86
2021/09/19 01:35:14;;;;;;;13.80;6.70;;;;;;;17.41;100.00;100221.38;1697699;84;21046;-86
2021/09/19 01:37:41;;;;;;;16.02;6.70;;;;;;;17.43;100.00;100219.69;1697644;84;21030;-84
2021/09/19 01:40:09;;;;;;;17.37;6.87;;;;;;;17.44;100.00;100213.11;1697949;84;21082;-84
2021/09/19 01:42:35;;;;;;;14.15;7.35;;;;;;;17.38;100.00;100205.67;1697823;84;21135;-85
2021/09/19 01:45:01;;;;;;;19.48;9.78;;;;;;;17.33;100.00;100198.99;1697779;84;21761;-85
2021/09/19 01:47:27;;;;;;;21.85;10.48;;;;;;;17.27;100.00;100206.27;1697846;84;20976;-86
2021/09/19 01:49:53;;;;;;;16.75;8.53;;;;;;;17.19;100.00;100200.45;1697665;84;21042;-85
2021/09/19 01:52:20;;;;;;;16.07;7.10;;;;;;;17.15;100.00;100187.80;1697576;84;21557;-84
2021/09/19 01:54:47;;;;;;;13.70;6.83;;;;;;;17.08;100.00;100182.77;1697825;84;21054;-85
2021/09/19 01:57:22;;;;;;;16.60;7.30;;;;;;;17.09;100.00;100185.77;1697770;84;21964;-88
2021/09/19 01:59:51;;;;;;;20.32;8.38;;;;;;;17.10;100.00;100186.00;1697564;84;20988;-87
2021/09/19 02:02:19;;;;;;;16.50;8.33;;;;;;;17.14;100.00;100180.16;1681261;84;21091;-87
2021/09/19 02:04:46;;;;;;;13.95;7.92;;;;;;;17.19;100.00;100184.11;1671381;85;21159;-87
2021/09/19 02:07:13;;;;;;;16.90;7.45;;;;;;;17.21;100.00;100184.61;1670201;86;21098;-87
2021/09/19 02:09:39;;;;;;;22.58;8.03;;;;;;;17.23;100.00;100180.19;1670316;86;21086;-87
2021/09/19 02:12:06;;;;;;;16.52;8.10;;;;;;;17.25;100.00;100179.33;1670064;86;21062;-88
2021/09/19 02:14:32;;;;;;;14.93;8.48;;;;;;;17.26;100.00;100182.28;1670255;86;21011;-87
2021/09/19 02:16:58;;;;;;;18.57;8.05;;;;;;;17.29;100.00;100181.66;1670062;86;20959;-87
2021/09/19 02:19:24;;;;;;;16.93;8.03;;;;;;;17.31;100.00;100178.63;1669984;86;20907;-86
2021/09/19 02:21:50;;;;;;;17.27;8.23;;;;;;;17.33;100.00;100184.02;1670441;86;20977;-87
2021/09/19 02:24:16;;;;;;;18.23;8.18;;;;;;;17.36;100.00;100182.58;1670287;86;20934;-87
2021/09/19 02:26:42;;;;;;;21.42;9.53;;;;;;;17.37;100.00;100185.54;1670131;86;21563;-87
2021/09/19 02:29:08;;;;;;;23.25;10.98;;;;;;;17.40;100.00;100183.55;1670252;86;20884;-87
2021/09/19 02:31:34;;;;;;;19.40;10.48;;;;;;;17.44;100.00;100180.42;1670292;86;21014;-88
2021/09/19 02:34:00;;;;;;;25.35;11.35;;;;;;;17.46;100.00;100178.20;1670127;86;21165;-87
2021/09/19 02:36:26;;;;;;;17.87;8.23;;;;;;;17.45;100.00;100183.41;1670143;86;21003;-85
2021/09/19 02:38:53;;;;;;;16.60;8.83;;;;;;;17.47;100.00;100176.53;1670233;86;21186;-87
2021/09/19 02:41:25;;;;;;;13.28;7.30;;;;;;;17.51;100.00;100186.80;1670043;86;21490;-87
2021/09/19 02:43:50;;;;;;;15.98;7.37;;;;;;;17.51;100.00;100182.14;1669830;86;21541;-87
2021/09/19 02:46:16;;;;;;;13.60;7.22;;;;;;;17.52;100.00;100183.73;1670360;86;20996;-87
2021/09/19 02:48:42;;;;;;;20.68;8.03;;;;;;;17.52;100.00;100178.86;1670091;84;21731;-87
2021/09/19 02:51:08;;;;;;;19.77;7.53;;;;;;;17.52;100.00;100176.13;1670133;86;21009;-87
2021/09/19 02:53:34;;;;;;;16.32;7.65;;;;;;;17.55;100.00;100177.66;1670219;86;20887;-87
2021/09/19 02:56:00;;;;;;;15.48;7.90;;;;;;;17.56;100.00;100176.56;1670168;86;20892;-87
2021/09/19 02:58:26;;;;;;;18.20;7.80;;;;;;;17.56;100.00;100175.73;1682738;83;21891;-87
2021/09/19 03:00:52;;;;;;;15.65;7.20;;;;;;;17.57;100.00;100174.62;1682185;84;21078;-87
2021/09/19 03:03:17;;;;;;;18.17;8.50;;;;;;;17.58;100.00;100181.67;1738988;82;20894;-87
2021/09/19 03:05:43;;;;;;;20.95;8.35;;;;;;;17.64;100.00;100186.66;1727107;82;20923;-87
2021/09/19 03:08:09;;;;;;;20.23;8.90;;;;;;;17.67;100.00;100175.11;1725498;83;20855;-87
2021/09/19 03:10:36;;;;;;;21.00;8.60;;;;;;;17.70;100.00;100181.29;1725412;83;21098;-88
2021/09/19 03:13:03;;;;;;;17.62;9.13;;;;;;;17.70;100.00;100170.39;1725026;82;21033;-87
2021/09/19 03:15:29;;;;;;;24.32;8.95;;;;;;;17.70;100.00;100170.39;1725280;83;21407;-88
2021/09/19 03:17:55;;;;;;;20.37;9.08;;;;;;;17.75;100.00;100170.02;1725375;83;21692;-87
2021/09/19 03:20:21;;;;;;;18.27;8.80;;;;;;;17.79;100.00;100164.19;1725412;83;21020;-87
2021/09/19 03:22:47;;;;;;;21.80;9.15;;;;;;;17.82;100.00;100167.64;1725388;83;21158;-88
2021/09/19 03:25:15;;;;;;;20.90;9.15;;;;;;;17.81;100.00;100167.41;1725401;82;20903;-87
2021/09/19 03:27:42;;;;;;;19.62;9.33;;;;;;;17.86;100.00;100166.70;1725225;83;21033;-87
2021/09/19 03:30:12;;;;;;;22.42;8.95;;;;;;;17.86;100.00;100167.27;1725324;83;21394;-88
2021/09/19 03:32:39;;;;;;;17.70;9.13;;;;;;;17.79;100.00;100159.53;1725294;83;21616;-87
2021/09/19 03:35:07;;;;;;;18.50;10.00;;;;;;;17.79;100.00;100159.53;1725326;83;20995;-88
2021/09/19 03:37:32;;;;;;;23.07;9.65;;;;;;;17.84;100.00;100166.20;1725309;83;21526;-88
2021/09/19 03:39:58;;;;;;;21.30;10.15;;;;;;;17.86;100.00;100161.81;1725572;82;20978;-88
2021/09/19 03:42:24;;;;;;;19.20;9.53;;;;;;;17.84;100.00;100164.84;1725381;83;20843;-92
2021/09/19 03:44:50;;;;;;;23.83;9.80;;;;;;;17.84;100.00;100159.39;1725227;83;21651;-90
2021/09/19 03:47:17;;;;;;;20.82;9.20;;;;;;;17.86;100.00;100165.90;1725366;83;21410;-88
2021/09/19 03:49:43;;;;;;;17.67;9.13;;;;;;;17.88;100.00;100170.45;1725324;83;21539;-87
2021/09/19 03:52:10;;;;;;;21.85;9.73;;;;;;;17.90;100.00;100169.02;1725427;82;20998;-89
2021/09/19 03:54:36;;;;;;;25.80;9.43;;;;;;;17.93;100.00;100168.94;1725333;82;21019;-88
2021/09/19 03:57:02;;;;;;;19.45;9.33;;;;;;;17.89;100.00;100161.97;1704419;83;21735;-88
2021/09/19 03:59:28;;;;;;;24.50;9.78;;;;;;;18.00;100.00;100172.55;1725255;83;21074;-88
2021/09/19 04:01:54;;;;;;;24.02;9.90;;;;;;;18.03;100.00;100169.17;1725228;83;20898;-88
2021/09/19 04:04:20;;;;;;;18.67;9.10;;;;;;;18.03;100.00;100171.91;1727220;82;21064;-88
2021/09/19 04:06:45;;;;;;;16.42;8.65;;;;;;;18.05;100.00;100169.67;1743940;82;20863;-87
2021/09/19 04:09:14;;;;;;;20.77;9.68;;;;;;;18.06;100.00;100167.17;1743760;82;20898;-88
2021/09/19 04:11:40;;;;;;;15.32;8.50;;;;;;;18.09;100.00;100159.74;1743574;82;21257;-88
2021/09/19 04:14:06;;;;;;;19.23;8.90;;;;;;;18.12;100.00;100162.63;1730588;83;21620;-88
2021/09/19 04:16:32;;;;;;;18.65;8.58;;;;;;;18.19;100.00;100163.50;1710802;83;20914;-89
2021/09/19 04:18:59;;;;;;;16.52;8.53;;;;;;;18.24;100.00;100167.44;1713959;82;20898;-89
2021/09/19 04:21:24;;;;;;;17.02;8.78;;;;;;;18.26;100.00;100167.09;1739259;82;21085;-87
2021/09/19 04:23:50;;;;;;;16.55;8.88;;;;;;;18.29;100.00;100169.98;1739173;82;21147;-89
2021/09/19 04:26:16;;;;;;;20.05;9.13;;;;;;;18.33;100.00;100169.59;1739276;82;20887;-88
2021/09/19 04:28:42;;;;;;;23.75;9.53;;;;;;;18.37;100.00;100172.47;1739017;82;21707;-88
2021/09/19 04:31:08;;;;;;;23.38;9.38;;;;;;;18.45;100.00;100169.50;1739198;82;20903;-89
2021/09/19 04:33:34;;;;;;;20.30;9.85;;;;;;;18.47;100.00;100170.80;1739247;82;20855;-89
2021/09/19 04:35:59;;;;;;;19.60;9.88;;;;;;;18.47;100.00;100173.52;1739204;82;21395;-88
2021/09/19 04:38:25;;;;;;;19.65;10.32;;;;;;;18.48;100.00;100175.11;1713804;82;21040;-89
2021/09/19 04:40:51;;;;;;;21.15;10.93;;;;;;;18.50;100.00;100182.42;1739241;82;20906;-88
2021/09/19 04:43:17;;;;;;;25.48;11.18;;;;;;;18.49;100.00;100183.53;1738980;82;20896;-89
2021/09/19 04:45:43;;;;;;;22.90;10.85;;;;;;;18.46;100.00;100182.02;1739177;82;20918;-88
2021/09/19 04:48:09;;;;;;;30.65;12.73;;;;;;;18.49;100.00;100175.34;1738989;82;21620;-90
2021/09/19 04:50:35;;;;;;;27.93;13.22;;;;;;;18.50;100.00;100172.87;1705411;84;20958;-89
2021/09/19 04:53:01;;;;;;;21.30;11.97;;;;;;;18.50;100.00;100166.59;1705541;84;21065;-89
2021/09/19 04:55:27;;;;;;;25.50;13.05;;;;;;;18.51;100.00;100162.19;1680732;84;20883;-88
2021/09/19 04:57:53;;;;;;;32.38;13.43;;;;;;;18.54;100.00;100153.35;1705480;84;20974;-90
2021/09/19 05:00:19;;;;;;;24.82;12.88;;;;;;;18.56;100.00;100158.47;1705683;84;22004;-89
2021/09/19 05:02:44;;;;;;;26.93;12.75;;;;;;;18.64;100.00;100156.86;1705509;84;20910;-91
2021/09/19 05:05:10;;;;;;;28.15;13.78;;;;;;;18.71;100.00;100149.79;1700089;84;20896;-90
2021/09/19 05:07:36;;;;;;;31.75;14.10;;;;;;;18.84;100.00;100154.83;1701772;84;21002;-91
2021/09/19 05:10:04;;;;;;;31.50;14.35;;;;;;;18.93;100.00;100158.33;1701838;84;21010;-90
2021/09/19 05:12:30;;;;;;;33.78;14.45;;;;;;;19.05;100.00;100151.61;1701642;84;21097;-90
2021/09/19 05:14:57;;;;;;;33.18;15.90;;;;;;;19.21;100.00;100153.82;1710999;83;20978;-91
2021/09/19 05:17:22;;;;;;;30.55;14.78;;;;;;;19.38;100.00;100158.38;1725318;83;21048;-90
2021/09/19 05:19:48;;;;;;;32.60;15.13;;;;;;;19.60;100.00;100166.88;1725307;83;20875;-90
2021/09/19 05:22:14;;;;;;;26.57;14.53;;;;;;;19.72;100.00;100170.51;1725272;83;21096;-90
2021/09/19 05:24:40;;;;;;;39.05;15.45;;;;;;;19.89;100.00;100177.01;1725392;83;21692;-90
2021/09/19 05:27:06;;;;;;;34.65;15.53;;;;;;;19.94;100.00;100172.69;1724942;83;20966;-91
2021/09/19 05:29:32;;;;;;;29.12;15.72;;;;;;;19.96;100.00;100167.69;1725404;83;20910;-91
2021/09/19 05:31:58;;;;;;;32.55;15.55;;;;;;;20.01;100.00;100159.87;1721259;83;21586;-91
2021/09/19 05:34:24;;;;;;;29.82;15.23;;;;;;;20.03;100.00;100158.95;1725454;83;20892;-92
2021/09/19 05:36:49;;;;;;;29.70;14.05;;;;;;;20.06;100.00;100154.17;1704329;83;21048;-90
2021/09/19 05:39:15;;;;;;;30.35;15.38;;;;;;;20.08;100.00;100161.48;1691504;84;20958;-91
2021/09/19 05:41:41;;;;;;;28.27;14.03;;;;;;;20.15;100.00;100170.77;1752549;81;20898;-91
2021/09/19 05:44:07;;;;;;;25.48;13.62;;;;;;;20.24;100.00;100159.75;1749064;81;20856;-92
2021/09/19 05:46:33;;;;;;;26.23;13.48;;;;;;;20.30;100.00;100158.98;1752732;81;20957;-91
2021/09/19 05:49:05;;;;;;;27.05;14.15;;;;;;;20.51;100.00;100161.11;1752760;81;21169;-91
2021/09/19 05:51:31;;;;;;;27.17;13.30;;;;;;;20.75;100.00;100157.66;1752584;81;21033;-93
2021/09/19 05:53:56;;;;;;;26.25;13.20;;;;;;;21.08;100.00;100152.69;1731346;81;20882;-92
2021/09/19 05:56:26;;;;;;;30.45;13.10;;;;;;;21.52;100.00;100155.11;1752762;81;20949;-93
2021/09/19 05:58:52;;;;;;;27.02;14.30;;;;;;;21.82;100.00;100163.64;1752133;80;21038;-94
2021/09/19 06:01:17;;;;;;;31.02;15.18;;;;;;;21.86;100.00;100165.36;1752810;81;20906;-93
2021/09/19 06:03:45;;;;;;;40.75;17.27;;;;;;;21.81;100.00;100156.56;1752835;81;20930;-93
2021/09/19 06:06:11;;;;;;;35.03;15.32;;;;;;;21.72;100.00;100153.38;1746678;81;21498;-92
2021/09/19 06:08:37;;;;;;;32.75;16.15;;;;;;;21.68;100.00;100155.22;1743895;82;20886;-93
2021/09/19 06:11:13;;;;;;;31.27;16.62;;;;;;;21.61;100.00;100165.16;1744160;82;20934;-93
2021/09/19 06:13:38;;;;;;;36.90;17.60;;;;;;;21.60;100.00;100165.73;1703808;83;21097;-93
2021/09/19 06:16:05;;;;;;;32.67;18.02;;;;;;;21.61;100.00;100170.64;1710627;83;20969;-93
2021/09/19 06:19:07;;;;;;;38.63;16.62;;;;;;;21.50;100.00;100171.12;1710736;84;21053;-92
2021/09/19 06:21:33;;;;;;;36.77;18.40;;;;;;;21.44;100.00;100171.67;1710685;83;21589;-95
2021/09/19 06:23:59;;;;;;;33.78;16.82;;;;;;;21.36;100.00;100169.30;1710692;84;21001;-93
2021/09/19 06:26:39;;;;;;;30.65;16.95;;;;;;;21.23;100.00;100167.66;1711611;81;21134;-94
2021/09/19 06:29:05;;;;;;;35.68;18.25;;;;;;;21.18;100.00;100172.80;1710748;84;20975;-94
2021/09/19 06:31:32;;;;;;;37.98;16.23;;;;;;;21.19;100.00;100159.32;1710741;84;20977;-95
2021/09/19 06:45:03;;;;;;;32.30;16.95;;;;;;;21.06;100.00;100161.81;1710614;83;21102;-93
2021/09/19 06:47:29;;;;;;;36.42;18.57;;;;;;;20.95;100.00;100157.94;1682339;83;21025;-94
2021/09/19 06:49:55;;;;;;;41.58;20.55;;;;;;;20.96;100.00;100156.78;1711081;83;21057;-96
2021/09/19 07:00:08;;;;;;;62.85;31.30;;;;;;;20.93;100.00;100182.13;1703388;81;20971;-95
2021/09/19 07:02:34;;;;;;;65.22;29.75;;;;;;;20.89;100.00;100182.58;1703507;84;20991;-96
2021/09/19 07:05:04;;;;;;;68.55;31.30;;;;;;;20.82;100.00;100181.20;1703253;84;21055;-96
2021/09/19 07:07:31;;;;;;;71.15;31.80;;;;;;;20.76;100.00;100182.53;1703415;84;21047;-95
2021/09/19 07:09:56;;;;;;;66.05;31.35;;;;;;;20.70;100.00;100190.73;1703132;84;21490;-95
2021/09/19 07:12:50;;;;;;;64.12;31.57;;;;;;;20.72;100.00;100197.25;1703371;84;21030;-94
2021/09/19 07:15:16;;;;;;;72.05;31.45;;;;;;;20.83;100.00;100195.12;1699731;84;20999;-93
2021/09/19 07:17:42;;;;;;;70.92;32.50;;;;;;;20.95;100.00;100192.18;1703001;84;20860;-95
2021/09/19 07:24:13;;;;;;;66.20;30.32;;;;;;;21.15;100.00;100192.67;1702405;84;21601;-95
2021/09/19 07:26:39;;;;;;;72.90;30.95;;;;;;;21.28;100.00;100197.58;1702579;84;21080;-93
2021/09/19 07:29:06;;;;;;;77.45;32.65;;;;;;;21.39;100.00;100191.91;1702962;84;20848;-95
2021/09/19 07:31:34;;;;;;;68.07;30.65;;;;;;;21.38;100.00;100201.26;1702993;84;20995;-91
2021/09/19 07:34:00;;;;;;;65.12;29.85;;;;;;;21.39;100.00;100204.25;1702823;84;21881;-93
2021/09/19 07:36:33;;;;;;;69.80;30.00;;;;;;;21.29;100.00;100202.71;1702910;84;21038;-93
2021/09/19 07:39:03;;;;;;;73.45;31.02;;;;;;;21.20;100.00;100207.50;1703358;84;21527;-94
2021/09/19 07:41:37;;;;;;;82.65;32.58;;;;;;;21.13;100.00;100205.91;1700157;84;21047;-93
2021/09/19 07:44:08;;;;;;;85.22;33.75;;;;;;;21.13;100.00;100207.27;1702669;84;21491;-95
2021/09/19 07:46:34;;;;;;;89.47;35.55;;;;;;;21.17;100.00;100207.39;1622745;87;21114;-94
2021/09/19 07:49:22;;;;;;;91.17;37.53;;;;;;;21.21;100.00;100210.49;1609350;89;21069;-94
2021/09/19 07:51:49;;;;;;;92.37;36.80;;;;;;;21.35;100.00;100217.56;1629194;88;21077;-93
2021/09/19 07:54:15;;;;;;;96.00;39.63;;;;;;;21.49;100.00;100217.48;1629131;88;21625;-95
2021/09/19 07:56:41;;;;;;;106.92;43.70;;;;;;;21.60;100.00;100215.09;1630361;85;21104;-91
2021/09/19 07:59:07;;;;;;;109.03;44.13;;;;;;;21.71;100.00;100219.56;1621623;87;21517;-95
2021/09/19 08:01:33;;;;;;;106.20;43.00;;;;;;;21.79;100.00;100204.90;1611876;89;21002;-90
2021/09/19 08:03:59;;;;;;;99.05;42.13;;;;;;;21.89;100.00;100203.65;1611916;89;21072;-90
2021/09/19 08:06:25;;;;;;;94.77;38.67;;;;;;;21.98;100.00;100207.06;1611913;89;21040;-96
2021/09/19 08:08:52;;;;;;;85.32;36.17;;;;;;;21.91;100.00;100203.53;1590690;89;21137;-90
2021/09/19 08:11:19;;;;;;;77.05;34.65;;;;;;;21.96;100.00;100216.20;1611784;89;21147;-91
2021/09/19 08:16:15;;;;;;;72.08;31.17;;;;;;;21.95;100.00;100214.61;1635855;87;20995;-91
2021/09/19 08:18:40;;;;;;;66.15;30.85;;;;;;;21.94;100.00;100219.85;1635983;87;21518;-91
2021/09/19 08:21:06;;;;;;;73.72;30.37;;;;;;;21.86;100.00;100224.92;1635902;87;21026;-91
2021/09/19 08:23:33;;;;;;;66.60;28.95;;;;;;;21.85;100.00;100218.61;1636030;87;21129;-92
2021/09/19 08:25:58;;;;;;;73.42;31.90;;;;;;;21.81;100.00;100227.89;1635635;87;21503;-90
2021/09/19 08:28:25;;;;;;;79.35;32.03;;;;;;;21.75;100.00;100234.97;1636560;84;21022;-93
2021/09/19 08:30:51;;;;;;;67.30;29.32;;;;;;;21.69;100.00;100233.60;1635868;87;21077;-92
2021/09/19 08:35:50;;;;;;;55.83;24.37;;;;;;;21.60;100.00;100228.81;1552092;91;21051;-92
2021/09/19 08:38:30;;;;;;;48.50;22.35;;;;;;;21.60;100.00;100224.70;1549111;91;21838;-91
2021/09/19 08:40:55;;;;;;;50.10;21.97;;;;;;;21.66;100.00;100221.16;1549112;92;21654;-91
2021/09/19 08:43:21;;;;;;;47.03;21.17;;;;;;;21.73;100.00;100226.28;1552494;92;21159;-92
2021/09/19 08:45:52;;;;;;;47.33;21.07;;;;;;;22.06;100.00;100224.52;1552474;92;21110;-94
2021/09/19 08:48:21;;;;;;;45.12;21.50;;;;;;;22.37;100.00;100230.77;1552093;91;21601;-90
2021/09/19 08:50:53;;;;;;;44.48;19.82;;;;;;;22.52;100.00;100229.23;1533998;92;21090;-89
2021/09/19 08:53:31;;;;;;;;;;;;;;;;;;;;;
2021/09/19 08:55:49;;;;;;;44.63;22.30;;;;;;;22.61;100.00;100219.68;1514646;93;21577;-90
2021/09/19 08:58:16;;;;;;;45.88;21.80;;;;;;;22.77;100.00;100218.95;1492071;95;21062;-90
2021/09/19 09:00:48;;;;;;;43.78;21.52;;;;;;;22.87;100.00;100219.80;1472615;96;21135;-89
2021/09/19 09:03:20;;;;;;;45.90;22.87;;;;;;;22.88;100.00;100211.77;1472508;97;21114;-89
2021/09/19 09:05:59;;;;;;;45.40;22.20;;;;;;;23.12;100.00;100210.87;1469169;97;21261;-88
2021/09/19 09:08:26;;;;;;;51.83;23.12;;;;;;;23.37;100.00;100210.68;1469629;97;21600;-89
2021/09/19 09:10:55;;;;;;;50.88;24.80;;;;;;;23.49;100.00;100215.49;1469619;97;21701;-87
2021/09/19 09:13:28;;;;;;;44.38;21.97;;;;;;;23.96;100.00;100217.97;1469363;97;21245;-86
2021/09/19 09:16:16;;;;;;;40.90;21.55;;;;;;;24.58;100.00;100214.77;1469780;97;28404;-86
2021/09/19 09:18:53;;;;;;;51.18;24.70;;;;;;;25.01;100.00;100216.95;1467358;97;21056;-87
2021/09/19 09:21:25;;;;;;;42.13;23.55;;;;;;;25.50;100.00;100216.79;1463997;98;21592;-85
2021/09/19 09:23:58;;;;;;;43.65;22.70;;;;;;;26.69;100.00;100220.02;1464547;98;21095;-88
2021/09/19 09:26:31;;;;;;;38.88;22.00;;;;;;;27.42;100.00;100212.63;1451288;98;21955;-86
2021/09/19 09:29:07;;;;;;;41.73;23.57;;;;;;;27.75;100.00;100217.20;1464430;98;21148;-87
2021/09/19 09:31:43;;;;;;;37.35;22.27;;;;;;;27.97;100.00;100216.75;1425185;100;21144;-86
2021/09/19 09:34:14;;;;;;;42.27;24.37;;;;;;;28.44;100.00;100218.61;1496644;95;21120;-87
2021/09/19 09:36:57;;;;;;;40.05;22.85;;;;;;;28.98;100.00;100218.12;1509001;95;21024;-88
2021/09/19 09:39:42;;;;;;;43.35;23.25;;;;;;;29.05;100.00;100217.36;1541468;91;21109;-86
2021/09/19 09:42:19;;;;;;;38.80;23.02;;;;;;;28.97;100.00;100215.16;1564370;91;21080;-87
2021/09/19 09:44:54;;;;;;;42.43;23.30;;;;;;;29.12;100.00;100217.95;1564579;91;21068;-86
2021/09/19 09:47:23;;;;;;;37.88;22.62;;;;;;;29.17;100.00;100218.96;1553623;92;21055;-86
2021/09/19 09:49:53;;;;;;;33.30;20.62;;;;;;;29.16;100.00;100221.55;1471826;96;21150;-86
2021/09/19 09:52:26;;;;;;;35.25;20.82;;;;;;;28.98;100.00;100227.84;1471861;97;21188;-85
2021/09/19 09:54:56;;;;;;;39.25;22.98;;;;;;;28.80;100.00;100226.23;1471895;97;21171;-88
2021/09/19 09:57:56;;;;;;;43.85;23.90;;;;;;;28.56;100.00;100220.23;1471946;97;21077;-86
2021/09/19 10:00:22;;;;;;;40.60;23.07;;;;;;;28.55;100.00;100220.01;1468731;96;21124;-86
2021/09/19 10:02:51;;;;;;;39.92;21.00;;;;;;;28.66;100.00;100222.23;1493136;94;21597;-86
2021/09/19 10:05:21;;;;;;;35.35;21.10;;;;;;;28.51;100.00;100224.77;1526872;94;21145;-86
2021/09/19 10:07:48;;;;;;;55.23;27.25;;;;;;;28.52;100.00;100218.81;1526870;94;21170;-87
2021/09/19 10:10:18;;;;;;;48.35;25.97;;;;;;;28.61;100.00;100220.42;1523568;94;21121;-85
2021/09/19 10:12:47;;;;;;;54.73;28.00;;;;;;;28.57;100.00;100221.02;1526772;94;21126;-86
2021/09/19 10:15:14;;;;;;;56.25;28.65;;;;;;;28.41;100.00;100223.52;1524504;93;21123;-84
2021/09/19 10:17:40;;;;;;;58.80;30.35;;;;;;;28.15;100.00;100223.77;1514037;94;21089;-86
2021/09/19 10:20:22;;;;;;;57.13;30.70;;;;;;;27.95;100.00;100225.47;1514346;93;21086;-85
2021/09/19 10:23:14;;;;;;;61.80;30.40;;;;;;;27.71;100.00;100228.83;1514157;94;21616;-85
2021/09/19 10:25:56;;;;;;;57.40;30.68;;;;;;;27.43;100.00;100234.97;1514021;94;21629;-86
2021/09/19 10:28:39;;;;;;;62.30;31.70;;;;;;;27.15;100.00;100239.88;1513646;94;21058;-85
2021/09/19 10:31:22;;;;;;;;;;;;;;;27.00;100.00;100235.33;1451760;98;21138;-87
2021/09/19 10:33:56;;;;;;;57.05;28.20;;;;;;;27.02;100.00;100229.44;1428201;100;20199;-85
2021/09/19 10:36:42;;;;;;;52.93;27.62;;;;;;;26.92;100.00;100228.16;1459144;98;21074;-85
2021/09/19 10:39:25;;;;;;;61.85;31.65;;;;;;;26.78;100.00;100220.51;1458723;98;21145;-87
2021/09/19 10:42:31;;;;;;;58.33;30.50;;;;;;;26.67;100.00;100225.91;1459046;98;21144;-88
2021/09/19 10:45:01;;;;;;;57.45;28.62;;;;;;;26.59;100.00;100228.41;1462237;98;21339;-87
2021/09/19 10:47:40;;;;;;;57.20;29.40;;;;;;;26.58;100.00;100226.02;1502866;94;21062;-87
2021/09/19 10:57:53;;;;;;;56.58;27.37;;;;;;;25.74;100.00;100229.41;1532699;93;21530;-89
2021/09/19 11:00:21;;;;;;;54.45;26.00;;;;;;;25.43;100.00;100229.11;1508371;92;22124;-88
2021/09/19 11:03:04;;;;;;;47.62;25.35;;;;;;;25.63;100.00;100223.71;1510315;95;21099;-90
2021/09/19 11:05:44;;;;;;;39.63;21.85;;;;;;;25.91;100.00;100221.97;1540006;90;21059;-88
2021/09/19 11:08:18;;;;;;;41.55;21.70;;;;;;;26.15;100.00;100219.36;1532837;91;21074;-89
2021/09/19 11:10:59;;;;;;;38.40;21.75;;;;;;;26.21;100.00;100223.37;1518970;94;21087;-87
2021/09/19 11:13:53;;;;;;;40.03;21.35;;;;;;;26.34;100.00;100221.16;1522086;94;22131;-90
2021/09/19 11:16:20;;;;;;;31.97;17.73;;;;;;;26.58;100.00;100217.72;1531402;93;21165;-87
2021/09/19 11:18:52;;;;;;;32.65;18.67;;;;;;;26.90;100.00;100209.77;1524655;94;21176;-88
2021/09/19 11:21:26;;;;;;;33.58;19.52;;;;;;;27.08;100.00;100214.08;1525387;94;21186;-94
2021/09/19 11:24:01;;;;;;;36.20;19.20;;;;;;;27.22;100.00;100203.77;1525836;94;21078;-94
2021/09/19 11:26:47;;;;;;;35.25;19.32;;;;;;;27.30;100.00;100204.83;1482528;93;21417;-96
2021/09/19 11:29:24;;;;;;;31.30;17.77;;;;;;;27.29;100.00;100202.42;1522893;94;21109;-95
2021/09/19 11:32:22;;;;;;;35.55;18.73;;;;;;;27.39;100.00;100199.75;1498142;94;21195;-96
2021/09/19 11:34:48;;;;;;;31.70;17.25;;;;;;;27.45;100.00;100200.20;1498242;95;21113;-94
2021/09/19 11:37:18;;;;;;;30.72;17.23;;;;;;;27.50;100.00;100192.92;1498678;95;21574;-96
2021/09/19 11:47:42;;;;;;;27.00;14.85;;;;;;;27.91;100.00;100180.31;1523439;90;21221;-96
2021/09/19 11:50:15;;;;;;;24.77;14.50;;;;;;;27.94;98.50;100179.54;1471689;97;21154;-96
2021/09/19 11:56:26;;;;;;;23.15;11.63;;;;;;;27.77;100.00;100183.00;1428608;96;21158;-95
2021/09/19 11:58:53;;;;;;;19.48;9.65;;;;;;;27.92;99.83;100184.70;1426308;100;21260;-95
2021/09/19 12:34:39;;;;;;;18.82;9.88;;;;;;;27.06;74.93;100183.23;1585893;89;21948;-94
2021/09/19 12:37:07;;;;;;;21.02;10.40;;;;;;;26.96;72.26;100175.05;1585813;90;21114;-96
2021/09/19 12:39:34;;;;;;;20.30;10.45;;;;;;;26.75;71.93;100173.48;1565483;90;20998;-96